sensor_id;sensor_type;location;lat;lon;timestamp;temperature;humidity
8633;DHT22;4354;49.832;10.746;2022-08-04T00:04:31;17.80;99.90
8633;DHT22;4354;49.832;10.746;2022-08-04T00:07:15;17.80;99.90
8633;DHT22;4354;49.832;10.746;2022-08-04T00:09:49;17.80;99.90
8633;DHT22;4354;49.832;10.746;2022-08-04T00:12:19;17.70;99.90
8633;DHT22;4354;49.832;10.746;2022-08-04T00:14:58;17.70;99.90
8633;DHT22;4354;49.832;10.746;2022-08-04T00:17:31;17.70;99.90
8633;DHT22;4354;49.832;10.746;2022-08-04T00:20:04;17.60;99.90
8633;DHT22;4354;49.832;10.746;2022-08-04T00:22:34;17.60;99.90
8633;DHT22;4354;49.832;10.746;2022-08-04T00:25:03;17.50;99.90
8633;DHT22;4354;49.832;10.746;2022-08-04T00:27:31;17.50;99.90
8633;DHT22;4354;49.832;10.746;2022-08-04T00:30:02;17.50;99.90
8633;DHT22;4354;49.832;10.746;2022-08-04T00:32:30;17.50;99.90
8633;DHT22;4354;49.832;10.746;2022-08-04T00:35:00;17.40;99.90
8633;DHT22;4354;49.832;10.746;2022-08-04T00:37:27;17.40;99.90
8633;DHT22;4354;49.832;10.746;2022-08-04T00:39:55;17.30;99.90
8633;DHT22;4354;49.832;10.746;2022-08-04T00:45:43;17.40;99.90
8633;DHT22;4354;49.832;10.746;2022-08-04T00:51:59;17.30;99.90
8633;DHT22;4354;49.832;10.746;2022-08-04T01:00:12;17.20;99.90
8633;DHT22;4354;49.832;10.746;2022-08-04T01:03:08;17.10;99.90
8633;DHT22;4354;49.832;10.746;2022-08-04T01:20:06;16.90;99.90
8633;DHT22;4354;49.832;10.746;2022-08-04T01:22:58;16.90;99.90
8633;DHT22;4354;49.832;10.746;2022-08-04T01:29:07;16.80;99.90
8633;DHT22;4354;49.832;10.746;2022-08-04T01:34:05;16.70;99.90
8633;DHT22;4354;49.832;10.746;2022-08-04T01:36:35;16.70;99.90
8633;DHT22;4354;49.832;10.746;2022-08-04T01:39:04;16.60;99.90
8633;DHT22;4354;49.832;10.746;2022-08-04T01:41:51;16.50;99.90
8633;DHT22;4354;49.832;10.746;2022-08-04T01:44:26;16.40;99.90
8633;DHT22;4354;49.832;10.746;2022-08-04T01:46:54;16.40;99.90
8633;DHT22;4354;49.832;10.746;2022-08-04T01:49:21;16.30;99.90
8633;DHT22;4354;49.832;10.746;2022-08-04T01:51:49;16.30;99.90
8633;DHT22;4354;49.832;10.746;2022-08-04T01:54:17;16.30;99.90
8633;DHT22;4354;49.832;10.746;2022-08-04T01:56:46;16.30;99.90
8633;DHT22;4354;49.832;10.746;2022-08-04T01:59:18;16.30;99.90
8633;DHT22;4354;49.832;10.746;2022-08-04T02:01:45;16.40;99.90
8633;DHT22;4354;49.832;10.746;2022-08-04T02:04:14;16.40;99.90
8633;DHT22;4354;49.832;10.746;2022-08-04T02:12:48;16.30;99.90
8633;DHT22;4354;49.832;10.746;2022-08-04T02:15:29;16.30;99.90
8633;DHT22;4354;49.832;10.746;2022-08-04T02:18:23;16.20;99.90
8633;DHT22;4354;49.832;10.746;2022-08-04T02:20:58;16.10;99.90
8633;DHT22;4354;49.832;10.746;2022-08-04T02:23:37;16.10;99.90
8633;DHT22;4354;49.832;10.746;2022-08-04T02:26:23;16.10;99.90
8633;DHT22;4354;49.832;10.746;2022-08-04T02:31:38;16.00;99.90
8633;DHT22;4354;49.832;10.746;2022-08-04T02:34:08;16.00;99.90
8633;DHT22;4354;49.832;10.746;2022-08-04T02:36:40;16.00;99.90
8633;DHT22;4354;49.832;10.746;2022-08-04T02:39:09;16.00;99.90
8633;DHT22;4354;49.832;10.746;2022-08-04T02:41:36;16.00;99.90
8633;DHT22;4354;49.832;10.746;2022-08-04T02:44:05;15.90;99.90
8633;DHT22;4354;49.832;10.746;2022-08-04T02:46:34;15.90;99.90
8633;DHT22;4354;49.832;10.746;2022-08-04T02:49:04;15.80;99.90
8633;DHT22;4354;49.832;10.746;2022-08-04T02:51:37;15.80;99.90
8633;DHT22;4354;49.832;10.746;2022-08-04T02:54:06;15.80;99.90
8633;DHT22;4354;49.832;10.746;2022-08-04T02:56:35;15.70;99.90
8633;DHT22;4354;49.832;10.746;2022-08-04T02:59:09;15.80;99.90
8633;DHT22;4354;49.832;10.746;2022-08-04T03:01:36;15.70;99.90
8633;DHT22;4354;49.832;10.746;2022-08-04T03:04:42;15.60;99.90
8633;DHT22;4354;49.832;10.746;2022-08-04T03:35:33;15.50;99.90
8633;DHT22;4354;49.832;10.746;2022-08-04T03:38:15;15.40;99.90
8633;DHT22;4354;49.832;10.746;2022-08-04T03:44:38;15.40;99.90
8633;DHT22;4354;49.832;10.746;2022-08-04T04:01:51;15.40;99.90
8633;DHT22;4354;49.832;10.746;2022-08-04T04:10:45;15.50;99.90
8633;DHT22;4354;49.832;10.746;2022-08-04T04:13:59;15.40;99.90
8633;DHT22;4354;49.832;10.746;2022-08-04T04:16:37;15.50;99.90
8633;DHT22;4354;49.832;10.746;2022-08-04T04:25:01;15.70;99.90
8633;DHT22;4354;49.832;10.746;2022-08-04T04:35:17;15.70;99.90
8633;DHT22;4354;49.832;10.746;2022-08-04T04:46:37;16.00;99.90
8633;DHT22;4354;49.832;10.746;2022-08-04T04:49:16;16.20;99.90
8633;DHT22;4354;49.832;10.746;2022-08-04T04:52:07;16.40;99.90
8633;DHT22;4354;49.832;10.746;2022-08-04T04:57:37;16.70;99.90
8633;DHT22;4354;49.832;10.746;2022-08-04T05:00:22;16.80;99.90
8633;DHT22;4354;49.832;10.746;2022-08-04T05:05:59;17.00;99.90
8633;DHT22;4354;49.832;10.746;2022-08-04T05:14:24;17.10;99.90
8633;DHT22;4354;49.832;10.746;2022-08-04T05:17:26;17.00;99.90
8633;DHT22;4354;49.832;10.746;2022-08-04T05:20:05;17.10;99.90
8633;DHT22;4354;49.832;10.746;2022-08-04T05:22:38;17.10;99.90
8633;DHT22;4354;49.832;10.746;2022-08-04T05:27:48;17.10;99.90
8633;DHT22;4354;49.832;10.746;2022-08-04T05:30:17;17.10;99.90
8633;DHT22;4354;49.832;10.746;2022-08-04T05:32:49;17.10;99.90
8633;DHT22;4354;49.832;10.746;2022-08-04T05:35:33;17.30;99.90
8633;DHT22;4354;49.832;10.746;2022-08-04T05:38:23;17.40;99.90
8633;DHT22;4354;49.832;10.746;2022-08-04T05:40:53;17.50;99.90
8633;DHT22;4354;49.832;10.746;2022-08-04T05:43:21;17.60;99.90
8633;DHT22;4354;49.832;10.746;2022-08-04T05:45:50;17.70;99.90
8633;DHT22;4354;49.832;10.746;2022-08-04T05:48:18;17.70;99.90
8633;DHT22;4354;49.832;10.746;2022-08-04T05:50:45;17.80;99.90
8633;DHT22;4354;49.832;10.746;2022-08-04T05:53:14;18.00;99.90
8633;DHT22;4354;49.832;10.746;2022-08-04T05:55:42;18.00;99.90
8633;DHT22;4354;49.832;10.746;2022-08-04T05:58:28;18.30;99.90
8633;DHT22;4354;49.832;10.746;2022-08-04T06:01:00;18.40;99.90
8633;DHT22;4354;49.832;10.746;2022-08-04T06:03:31;18.60;99.90
8633;DHT22;4354;49.832;10.746;2022-08-04T06:05:59;18.70;99.90
8633;DHT22;4354;49.832;10.746;2022-08-04T06:08:28;18.90;99.90
8633;DHT22;4354;49.832;10.746;2022-08-04T06:10:58;19.00;99.90
8633;DHT22;4354;49.832;10.746;2022-08-04T06:13:29;19.20;99.90
8633;DHT22;4354;49.832;10.746;2022-08-04T06:16:19;19.30;99.90
8633;DHT22;4354;49.832;10.746;2022-08-04T06:19:00;19.50;99.90
8633;DHT22;4354;49.832;10.746;2022-08-04T06:21:50;19.70;99.90
8633;DHT22;4354;49.832;10.746;2022-08-04T06:24:19;19.90;99.90
8633;DHT22;4354;49.832;10.746;2022-08-04T06:26:49;20.10;99.90
8633;DHT22;4354;49.832;10.746;2022-08-04T06:29:18;20.30;99.90
8633;DHT22;4354;49.832;10.746;2022-08-04T06:31:52;20.50;99.90
8633;DHT22;4354;49.832;10.746;2022-08-04T06:34:44;20.60;99.90
8633;DHT22;4354;49.832;10.746;2022-08-04T06:37:11;21.00;99.90
8633;DHT22;4354;49.832;10.746;2022-08-04T06:39:59;21.20;99.90
8633;DHT22;4354;49.832;10.746;2022-08-04T06:42:28;21.40;99.90
8633;DHT22;4354;49.832;10.746;2022-08-04T06:44:57;21.60;99.90
8633;DHT22;4354;49.832;10.746;2022-08-04T06:47:25;21.70;99.90
8633;DHT22;4354;49.832;10.746;2022-08-04T06:49:54;21.90;99.90
8633;DHT22;4354;49.832;10.746;2022-08-04T06:52:43;22.20;99.90
8633;DHT22;4354;49.832;10.746;2022-08-04T06:55:11;22.40;99.90
8633;DHT22;4354;49.832;10.746;2022-08-04T06:57:39;22.60;99.90
8633;DHT22;4354;49.832;10.746;2022-08-04T07:00:09;22.70;99.90
8633;DHT22;4354;49.832;10.746;2022-08-04T07:02:47;22.90;99.90
8633;DHT22;4354;49.832;10.746;2022-08-04T07:05:15;23.10;99.90
8633;DHT22;4354;49.832;10.746;2022-08-04T07:07:43;23.30;99.90
8633;DHT22;4354;49.832;10.746;2022-08-04T07:10:27;23.50;99.90
8633;DHT22;4354;49.832;10.746;2022-08-04T07:12:59;23.70;99.90
8633;DHT22;4354;49.832;10.746;2022-08-04T07:15:27;23.90;99.90
8633;DHT22;4354;49.832;10.746;2022-08-04T07:17:54;24.10;99.90
8633;DHT22;4354;49.832;10.746;2022-08-04T07:20:27;24.30;99.90
8633;DHT22;4354;49.832;10.746;2022-08-04T07:23:04;24.60;99.90
8633;DHT22;4354;49.832;10.746;2022-08-04T07:25:35;24.80;99.90
8633;DHT22;4354;49.832;10.746;2022-08-04T07:28:24;25.00;99.90
8633;DHT22;4354;49.832;10.746;2022-08-04T07:30:53;25.40;99.90
8633;DHT22;4354;49.832;10.746;2022-08-04T07:33:20;26.20;99.90
8633;DHT22;4354;49.832;10.746;2022-08-04T07:35:50;28.30;99.90
8633;DHT22;4354;49.832;10.746;2022-08-04T07:38:41;30.40;97.00
8633;DHT22;4354;49.832;10.746;2022-08-04T07:41:24;33.00;85.40
8633;DHT22;4354;49.832;10.746;2022-08-04T07:44:09;34.90;72.70
8633;DHT22;4354;49.832;10.746;2022-08-04T07:46:39;36.40;66.50
8633;DHT22;4354;49.832;10.746;2022-08-04T07:49:06;37.60;57.10
8633;DHT22;4354;49.832;10.746;2022-08-04T07:51:35;38.20;54.00
8633;DHT22;4354;49.832;10.746;2022-08-04T07:54:03;38.90;53.00
8633;DHT22;4354;49.832;10.746;2022-08-04T07:56:32;39.20;50.70
8633;DHT22;4354;49.832;10.746;2022-08-04T07:58:59;40.00;48.90
8633;DHT22;4354;49.832;10.746;2022-08-04T08:01:27;40.90;47.00
8633;DHT22;4354;49.832;10.746;2022-08-04T08:03:55;40.40;44.90
8633;DHT22;4354;49.832;10.746;2022-08-04T08:06:23;41.40;43.40
8633;DHT22;4354;49.832;10.746;2022-08-04T08:09:08;41.20;42.00
8633;DHT22;4354;49.832;10.746;2022-08-04T08:11:41;41.20;42.10
8633;DHT22;4354;49.832;10.746;2022-08-04T08:14:28;41.80;41.60
8633;DHT22;4354;49.832;10.746;2022-08-04T08:16:58;41.90;39.80
8633;DHT22;4354;49.832;10.746;2022-08-04T08:19:28;42.80;38.70
8633;DHT22;4354;49.832;10.746;2022-08-04T08:21:55;42.90;38.20
8633;DHT22;4354;49.832;10.746;2022-08-04T08:24:26;42.80;36.80
8633;DHT22;4354;49.832;10.746;2022-08-04T08:26:53;42.80;36.40
8633;DHT22;4354;49.832;10.746;2022-08-04T08:29:22;42.90;36.10
8633;DHT22;4354;49.832;10.746;2022-08-04T08:31:49;43.50;35.40
8633;DHT22;4354;49.832;10.746;2022-08-04T08:34:28;43.70;34.20
8633;DHT22;4354;49.832;10.746;2022-08-04T08:37:03;43.70;34.70
8633;DHT22;4354;49.832;10.746;2022-08-04T08:39:52;43.30;34.00
8633;DHT22;4354;49.832;10.746;2022-08-04T08:56:27;43.10;31.00
8633;DHT22;4354;49.832;10.746;2022-08-04T08:59:04;43.60;32.10
8633;DHT22;4354;49.832;10.746;2022-08-04T09:02:06;43.50;31.30
8633;DHT22;4354;49.832;10.746;2022-08-04T09:10:38;44.20;30.00
8633;DHT22;4354;49.832;10.746;2022-08-04T09:13:23;44.10;30.00
8633;DHT22;4354;49.832;10.746;2022-08-04T09:15:58;43.70;30.30
8633;DHT22;4354;49.832;10.746;2022-08-04T09:23:51;42.90;31.10
8633;DHT22;4354;49.832;10.746;2022-08-04T09:26:43;43.30;30.70
8633;DHT22;4354;49.832;10.746;2022-08-04T09:29:32;44.00;30.60
8633;DHT22;4354;49.832;10.746;2022-08-04T09:32:16;43.90;30.70
8633;DHT22;4354;49.832;10.746;2022-08-04T09:43:47;44.80;29.70
8633;DHT22;4354;49.832;10.746;2022-08-04T09:46:58;45.00;30.20
8633;DHT22;4354;49.832;10.746;2022-08-04T09:49:35;45.60;29.60
8633;DHT22;4354;49.832;10.746;2022-08-04T09:52:10;44.60;30.10
8633;DHT22;4354;49.832;10.746;2022-08-04T09:54:44;44.60;29.90
8633;DHT22;4354;49.832;10.746;2022-08-04T10:00:00;44.60;30.20
8633;DHT22;4354;49.832;10.746;2022-08-04T10:02:33;44.50;30.00
8633;DHT22;4354;49.832;10.746;2022-08-04T10:05:04;44.90;30.50
8633;DHT22;4354;49.832;10.746;2022-08-04T10:10:19;44.80;30.10
8633;DHT22;4354;49.832;10.746;2022-08-04T10:20:54;45.50;29.30
8633;DHT22;4354;49.832;10.746;2022-08-04T10:29:23;45.20;29.30
8633;DHT22;4354;49.832;10.746;2022-08-04T10:32:05;44.40;28.90
8633;DHT22;4354;49.832;10.746;2022-08-04T10:34:39;43.60;29.20
8633;DHT22;4354;49.832;10.746;2022-08-04T10:37:18;43.40;29.90
8633;DHT22;4354;49.832;10.746;2022-08-04T10:40:18;42.80;29.40
8633;DHT22;4354;49.832;10.746;2022-08-04T10:48:35;43.50;29.40
8633;DHT22;4354;49.832;10.746;2022-08-04T10:54:28;43.30;29.20
8633;DHT22;4354;49.832;10.746;2022-08-04T10:57:06;43.20;29.20
8633;DHT22;4354;49.832;10.746;2022-08-04T10:59:42;44.00;29.00
8633;DHT22;4354;49.832;10.746;2022-08-04T11:05:17;44.20;28.40
8633;DHT22;4354;49.832;10.746;2022-08-04T11:07:50;43.50;28.70
8633;DHT22;4354;49.832;10.746;2022-08-04T11:10:20;43.90;28.80
8633;DHT22;4354;49.832;10.746;2022-08-04T11:12:55;44.00;28.60
8633;DHT22;4354;49.832;10.746;2022-08-04T11:15:29;43.90;28.60
8633;DHT22;4354;49.832;10.746;2022-08-04T11:18:05;43.50;28.40
8633;DHT22;4354;49.832;10.746;2022-08-04T11:20:48;43.90;29.30
8633;DHT22;4354;49.832;10.746;2022-08-04T11:23:17;44.20;28.60
8633;DHT22;4354;49.832;10.746;2022-08-04T11:29:00;44.00;28.50
8633;DHT22;4354;49.832;10.746;2022-08-04T11:31:32;43.30;29.20
8633;DHT22;4354;49.832;10.746;2022-08-04T11:34:04;42.20;29.40
8633;DHT22;4354;49.832;10.746;2022-08-04T11:36:48;41.80;28.90
8633;DHT22;4354;49.832;10.746;2022-08-04T11:39:34;41.50;29.70
8633;DHT22;4354;49.832;10.746;2022-08-04T11:42:17;41.60;29.80
8633;DHT22;4354;49.832;10.746;2022-08-04T11:45:34;41.50;30.00
8633;DHT22;4354;49.832;10.746;2022-08-04T11:47:54;41.60;30.00
8633;DHT22;4354;49.832;10.746;2022-08-04T11:50:33;42.20;30.70
8633;DHT22;4354;49.832;10.746;2022-08-04T11:53:04;42.50;30.50
8633;DHT22;4354;49.832;10.746;2022-08-04T11:55:33;41.50;29.50
8633;DHT22;4354;49.832;10.746;2022-08-04T11:58:20;41.10;30.20
8633;DHT22;4354;49.832;10.746;2022-08-04T12:01:04;40.90;30.50
8633;DHT22;4354;49.832;10.746;2022-08-04T12:06:25;39.80;30.30
8633;DHT22;4354;49.832;10.746;2022-08-04T12:14:52;39.80;31.20
8633;DHT22;4354;49.832;10.746;2022-08-04T12:17:28;39.40;31.50
8633;DHT22;4354;49.832;10.746;2022-08-04T12:20:21;39.10;30.90
8633;DHT22;4354;49.832;10.746;2022-08-04T12:23:13;39.10;32.20
8633;DHT22;4354;49.832;10.746;2022-08-04T12:25:45;39.30;32.80
8633;DHT22;4354;49.832;10.746;2022-08-04T12:28:30;38.80;31.90
8633;DHT22;4354;49.832;10.746;2022-08-04T12:34:40;38.80;32.90
8633;DHT22;4354;49.832;10.746;2022-08-04T12:39:50;38.50;32.20
8633;DHT22;4354;49.832;10.746;2022-08-04T12:42:50;38.40;34.00
8633;DHT22;4354;49.832;10.746;2022-08-04T12:45:25;38.60;33.10
8633;DHT22;4354;49.832;10.746;2022-08-04T12:47:56;37.90;33.50
8633;DHT22;4354;49.832;10.746;2022-08-04T12:50:23;38.10;33.20
8633;DHT22;4354;49.832;10.746;2022-08-04T12:52:53;38.40;33.40
8633;DHT22;4354;49.832;10.746;2022-08-04T12:55:29;38.60;33.10
8633;DHT22;4354;49.832;10.746;2022-08-04T12:57:57;38.50;33.50
8633;DHT22;4354;49.832;10.746;2022-08-04T13:00:36;38.10;33.10
8633;DHT22;4354;49.832;10.746;2022-08-04T13:03:13;37.70;33.00
8633;DHT22;4354;49.832;10.746;2022-08-04T13:05:42;37.90;33.90
8633;DHT22;4354;49.832;10.746;2022-08-04T13:08:12;38.00;33.10
8633;DHT22;4354;49.832;10.746;2022-08-04T13:10:43;38.20;34.00
8633;DHT22;4354;49.832;10.746;2022-08-04T13:13:15;38.00;33.10
8633;DHT22;4354;49.832;10.746;2022-08-04T13:15:43;37.50;32.80
8633;DHT22;4354;49.832;10.746;2022-08-04T13:18:22;37.70;32.90
8633;DHT22;4354;49.832;10.746;2022-08-04T13:20:56;37.90;33.10
8633;DHT22;4354;49.832;10.746;2022-08-04T13:23:51;37.80;34.10
8633;DHT22;4354;49.832;10.746;2022-08-04T13:26:57;37.40;32.80
8633;DHT22;4354;49.832;10.746;2022-08-04T13:29:50;37.20;34.00
8633;DHT22;4354;49.832;10.746;2022-08-04T13:32:29;37.50;35.30
8633;DHT22;4354;49.832;10.746;2022-08-04T13:34:59;37.20;33.70
8633;DHT22;4354;49.832;10.746;2022-08-04T13:37:33;37.10;34.40
8633;DHT22;4354;49.832;10.746;2022-08-04T13:40:04;37.20;34.40
8633;DHT22;4354;49.832;10.746;2022-08-04T13:42:34;37.10;33.60
8633;DHT22;4354;49.832;10.746;2022-08-04T13:45:04;37.20;34.80
8633;DHT22;4354;49.832;10.746;2022-08-04T13:47:33;37.30;34.60
8633;DHT22;4354;49.832;10.746;2022-08-04T13:50:22;37.20;34.60
8633;DHT22;4354;49.832;10.746;2022-08-04T13:52:54;37.20;34.90
8633;DHT22;4354;49.832;10.746;2022-08-04T13:55:30;37.30;35.40
8633;DHT22;4354;49.832;10.746;2022-08-04T14:06:34;37.20;34.70
8633;DHT22;4354;49.832;10.746;2022-08-04T14:11:47;37.50;34.00
8633;DHT22;4354;49.832;10.746;2022-08-04T14:14:36;37.60;34.10
8633;DHT22;4354;49.832;10.746;2022-08-04T14:17:12;37.60;35.40
8633;DHT22;4354;49.832;10.746;2022-08-04T14:25:10;37.10;34.60
8633;DHT22;4354;49.832;10.746;2022-08-04T14:30:28;36.70;34.50
8633;DHT22;4354;49.832;10.746;2022-08-04T14:32:57;36.70;34.80
8633;DHT22;4354;49.832;10.746;2022-08-04T14:35:25;36.50;34.30
8633;DHT22;4354;49.832;10.746;2022-08-04T14:38:12;36.70;34.40
8633;DHT22;4354;49.832;10.746;2022-08-04T14:40:41;36.80;34.10
8633;DHT22;4354;49.832;10.746;2022-08-04T14:43:09;36.90;34.20
8633;DHT22;4354;49.832;10.746;2022-08-04T14:45:38;36.90;33.90
8633;DHT22;4354;49.832;10.746;2022-08-04T14:48:20;37.00;33.80
8633;DHT22;4354;49.832;10.746;2022-08-04T14:50:49;36.90;34.60
8633;DHT22;4354;49.832;10.746;2022-08-04T14:53:20;36.80;34.50
8633;DHT22;4354;49.832;10.746;2022-08-04T14:55:52;36.70;35.40
8633;DHT22;4354;49.832;10.746;2022-08-04T15:01:05;36.60;35.00
8633;DHT22;4354;49.832;10.746;2022-08-04T15:03:42;36.60;36.00
8633;DHT22;4354;49.832;10.746;2022-08-04T15:06:16;36.40;35.00
8633;DHT22;4354;49.832;10.746;2022-08-04T15:08:49;36.20;34.50
8633;DHT22;4354;49.832;10.746;2022-08-04T15:11:16;36.10;34.80
8633;DHT22;4354;49.832;10.746;2022-08-04T15:13:49;36.00;35.60
8633;DHT22;4354;49.832;10.746;2022-08-04T15:16:16;35.70;35.80
8633;DHT22;4354;49.832;10.746;2022-08-04T15:18:43;35.70;35.50
8633;DHT22;4354;49.832;10.746;2022-08-04T15:21:16;35.60;35.20
8633;DHT22;4354;49.832;10.746;2022-08-04T15:23:43;35.60;36.60
8633;DHT22;4354;49.832;10.746;2022-08-04T15:26:14;35.70;36.00
8633;DHT22;4354;49.832;10.746;2022-08-04T15:28:46;35.70;35.40
8633;DHT22;4354;49.832;10.746;2022-08-04T15:31:14;35.70;36.10
8633;DHT22;4354;49.832;10.746;2022-08-04T15:34:01;35.50;36.00
8633;DHT22;4354;49.832;10.746;2022-08-04T15:39:43;35.30;36.40
8633;DHT22;4354;49.832;10.746;2022-08-04T15:42:29;35.10;37.00
8633;DHT22;4354;49.832;10.746;2022-08-04T15:47:35;35.10;35.70
8633;DHT22;4354;49.832;10.746;2022-08-04T15:50:10;35.10;36.30
8633;DHT22;4354;49.832;10.746;2022-08-04T15:53:03;35.10;35.60
8633;DHT22;4354;49.832;10.746;2022-08-04T15:55:40;35.10;35.20
8633;DHT22;4354;49.832;10.746;2022-08-04T15:58:13;35.10;36.20
8633;DHT22;4354;49.832;10.746;2022-08-04T16:18:54;35.10;37.50
8633;DHT22;4354;49.832;10.746;2022-08-04T16:21:24;35.10;36.90
8633;DHT22;4354;49.832;10.746;2022-08-04T16:24:19;35.10;36.90
8633;DHT22;4354;49.832;10.746;2022-08-04T16:26:49;35.00;37.40
8633;DHT22;4354;49.832;10.746;2022-08-04T16:29:40;35.00;37.40
8633;DHT22;4354;49.832;10.746;2022-08-04T16:32:21;34.90;37.60
8633;DHT22;4354;49.832;10.746;2022-08-04T16:35:00;34.90;36.90
8633;DHT22;4354;49.832;10.746;2022-08-04T16:37:34;34.80;36.60
8633;DHT22;4354;49.832;10.746;2022-08-04T16:40:27;34.80;38.00
8633;DHT22;4354;49.832;10.746;2022-08-04T16:43:13;34.80;37.80
8633;DHT22;4354;49.832;10.746;2022-08-04T16:45:53;34.80;38.10
8633;DHT22;4354;49.832;10.746;2022-08-04T16:48:22;34.70;38.00
8633;DHT22;4354;49.832;10.746;2022-08-04T16:51:02;34.60;37.90
8633;DHT22;4354;49.832;10.746;2022-08-04T16:53:41;34.50;38.20
8633;DHT22;4354;49.832;10.746;2022-08-04T16:56:31;34.50;38.10
8633;DHT22;4354;49.832;10.746;2022-08-04T16:59:10;34.40;38.30
8633;DHT22;4354;49.832;10.746;2022-08-04T17:01:49;34.30;38.30
8633;DHT22;4354;49.832;10.746;2022-08-04T17:04:17;34.30;39.40
8633;DHT22;4354;49.832;10.746;2022-08-04T17:06:58;34.20;39.00
8633;DHT22;4354;49.832;10.746;2022-08-04T17:09:25;34.10;40.20
8633;DHT22;4354;49.832;10.746;2022-08-04T17:11:55;34.00;40.50
8633;DHT22;4354;49.832;10.746;2022-08-04T17:14:24;33.90;39.70
8633;DHT22;4354;49.832;10.746;2022-08-04T17:16:52;33.80;39.50
8633;DHT22;4354;49.832;10.746;2022-08-04T17:19:19;33.70;39.60
8633;DHT22;4354;49.832;10.746;2022-08-04T17:21:59;33.70;40.40
8633;DHT22;4354;49.832;10.746;2022-08-04T17:24:36;33.60;39.80
8633;DHT22;4354;49.832;10.746;2022-08-04T17:27:04;33.50;39.20
8633;DHT22;4354;49.832;10.746;2022-08-04T17:29:52;33.50;39.10
8633;DHT22;4354;49.832;10.746;2022-08-04T17:32:19;33.40;39.50
8633;DHT22;4354;49.832;10.746;2022-08-04T17:34:54;33.40;40.10
8633;DHT22;4354;49.832;10.746;2022-08-04T17:37:23;33.30;40.70
8633;DHT22;4354;49.832;10.746;2022-08-04T17:40:15;33.20;40.80
8633;DHT22;4354;49.832;10.746;2022-08-04T17:42:49;33.00;39.60
8633;DHT22;4354;49.832;10.746;2022-08-04T17:45:17;33.00;40.20
8633;DHT22;4354;49.832;10.746;2022-08-04T17:48:06;32.90;40.10
8633;DHT22;4354;49.832;10.746;2022-08-04T17:50:34;32.90;40.90
8633;DHT22;4354;49.832;10.746;2022-08-04T17:53:05;32.80;40.80
8633;DHT22;4354;49.832;10.746;2022-08-04T17:55:44;32.80;41.30
8633;DHT22;4354;49.832;10.746;2022-08-04T17:58:31;32.70;41.40
8633;DHT22;4354;49.832;10.746;2022-08-04T18:01:00;32.60;41.60
8633;DHT22;4354;49.832;10.746;2022-08-04T18:03:47;32.40;41.90
8633;DHT22;4354;49.832;10.746;2022-08-04T18:06:20;32.20;41.90
8633;DHT22;4354;49.832;10.746;2022-08-04T18:08:55;32.10;42.50
8633;DHT22;4354;49.832;10.746;2022-08-04T18:11:51;31.90;42.80
8633;DHT22;4354;49.832;10.746;2022-08-04T18:14:18;31.70;43.50
8633;DHT22;4354;49.832;10.746;2022-08-04T18:16:54;31.50;43.90
8633;DHT22;4354;49.832;10.746;2022-08-04T18:19:21;31.40;44.40
8633;DHT22;4354;49.832;10.746;2022-08-04T18:21:48;31.20;45.00
8633;DHT22;4354;49.832;10.746;2022-08-04T18:24:27;31.10;46.20
8633;DHT22;4354;49.832;10.746;2022-08-04T18:27:16;30.90;48.80
8633;DHT22;4354;49.832;10.746;2022-08-04T18:29:43;30.70;49.90
8633;DHT22;4354;49.832;10.746;2022-08-04T18:32:30;30.50;50.10
8633;DHT22;4354;49.832;10.746;2022-08-04T18:34:59;30.20;50.60
8633;DHT22;4354;49.832;10.746;2022-08-04T18:37:31;30.00;51.20
8633;DHT22;4354;49.832;10.746;2022-08-04T18:40:18;29.90;52.20
8633;DHT22;4354;49.832;10.746;2022-08-04T18:43:04;29.60;52.90
8633;DHT22;4354;49.832;10.746;2022-08-04T18:45:31;29.30;52.70
8633;DHT22;4354;49.832;10.746;2022-08-04T18:48:01;29.10;53.30
8633;DHT22;4354;49.832;10.746;2022-08-04T18:50:40;28.90;53.50
8633;DHT22;4354;49.832;10.746;2022-08-04T18:53:28;28.60;53.80
8633;DHT22;4354;49.832;10.746;2022-08-04T18:56:03;28.40;55.00
8633;DHT22;4354;49.832;10.746;2022-08-04T18:58:40;28.20;56.50
8633;DHT22;4354;49.832;10.746;2022-08-04T19:01:10;28.00;57.80
8633;DHT22;4354;49.832;10.746;2022-08-04T19:03:40;27.80;57.70
8633;DHT22;4354;49.832;10.746;2022-08-04T19:06:11;27.60;57.90
8633;DHT22;4354;49.832;10.746;2022-08-04T19:08:38;27.50;58.30
8633;DHT22;4354;49.832;10.746;2022-08-04T19:11:08;27.30;58.40
8633;DHT22;4354;49.832;10.746;2022-08-04T19:13:55;27.10;59.10
8633;DHT22;4354;49.832;10.746;2022-08-04T19:16:28;26.90;60.40
8633;DHT22;4354;49.832;10.746;2022-08-04T19:19:00;26.80;61.70
8633;DHT22;4354;49.832;10.746;2022-08-04T19:21:28;26.60;62.90
8633;DHT22;4354;49.832;10.746;2022-08-04T19:24:15;26.50;63.80
8633;DHT22;4354;49.832;10.746;2022-08-04T19:26:58;26.40;65.70
8633;DHT22;4354;49.832;10.746;2022-08-04T19:29:33;26.30;66.30
8633;DHT22;4354;49.832;10.746;2022-08-04T19:32:04;26.10;66.80
8633;DHT22;4354;49.832;10.746;2022-08-04T19:34:40;25.90;66.80
8633;DHT22;4354;49.832;10.746;2022-08-04T19:37:15;25.80;66.80
8633;DHT22;4354;49.832;10.746;2022-08-04T19:40:04;25.70;66.80
8633;DHT22;4354;49.832;10.746;2022-08-04T19:42:31;25.50;67.20
8633;DHT22;4354;49.832;10.746;2022-08-04T19:44:58;25.40;67.40
8633;DHT22;4354;49.832;10.746;2022-08-04T19:47:25;25.30;68.40
8633;DHT22;4354;49.832;10.746;2022-08-04T19:50:12;25.20;69.10
8633;DHT22;4354;49.832;10.746;2022-08-04T19:52:39;25.00;69.70
8633;DHT22;4354;49.832;10.746;2022-08-04T19:55:17;24.90;69.90
8633;DHT22;4354;49.832;10.746;2022-08-04T19:57:48;24.80;70.40
8633;DHT22;4354;49.832;10.746;2022-08-04T20:00:16;24.70;70.30
8633;DHT22;4354;49.832;10.746;2022-08-04T20:03:00;24.60;70.10
8633;DHT22;4354;49.832;10.746;2022-08-04T20:05:28;24.60;70.70
8633;DHT22;4354;49.832;10.746;2022-08-04T20:08:15;24.60;71.30
8633;DHT22;4354;49.832;10.746;2022-08-04T20:10:42;24.50;71.50
8633;DHT22;4354;49.832;10.746;2022-08-04T20:13:21;24.30;71.80
8633;DHT22;4354;49.832;10.746;2022-08-04T20:16:05;24.20;72.50
8633;DHT22;4354;49.832;10.746;2022-08-04T20:18:52;24.10;72.90
8633;DHT22;4354;49.832;10.746;2022-08-04T20:21:24;24.00;74.10
8633;DHT22;4354;49.832;10.746;2022-08-04T20:24:11;24.00;74.40
8633;DHT22;4354;49.832;10.746;2022-08-04T20:26:58;24.00;73.50
8633;DHT22;4354;49.832;10.746;2022-08-04T20:29:25;23.90;75.00
8633;DHT22;4354;49.832;10.746;2022-08-04T20:32:07;23.80;75.30
8633;DHT22;4354;49.832;10.746;2022-08-04T20:34:35;23.70;76.10
8633;DHT22;4354;49.832;10.746;2022-08-04T20:37:02;23.80;76.30
8633;DHT22;4354;49.832;10.746;2022-08-04T20:39:29;23.80;77.30
8633;DHT22;4354;49.832;10.746;2022-08-04T20:41:56;23.80;78.60
8633;DHT22;4354;49.832;10.746;2022-08-04T20:44:24;23.70;78.30
8633;DHT22;4354;49.832;10.746;2022-08-04T20:46:51;23.70;79.30
8633;DHT22;4354;49.832;10.746;2022-08-04T20:49:17;23.80;79.40
8633;DHT22;4354;49.832;10.746;2022-08-04T20:51:44;23.70;80.30
8633;DHT22;4354;49.832;10.746;2022-08-04T20:54:15;23.60;81.20
8633;DHT22;4354;49.832;10.746;2022-08-04T20:56:52;23.60;82.20
8633;DHT22;4354;49.832;10.746;2022-08-04T20:59:19;23.50;82.50
8633;DHT22;4354;49.832;10.746;2022-08-04T21:01:47;23.60;83.50